Time;durP1;ratioP1;P1;durP2;ratioP2;P2;SDS_P1;SDS_P2;PMS_P1;PMS_P2;Temp;Humidity;BMP_temperature;BMP_pressure;BME280_temperature;BME280_humidity;BME280_pressure;Samples;Min_cycle;Max_cycle;Signal;HPM_P1;HPM_P2
2023/07/29 00:01:34;;;;;;;0.82;0.65;;;;;;;22.10;95.85;100029.41;5020423;28;20106;-64
2023/07/29 00:04:00;;;;;;;0.43;0.40;;;;;;;22.06;95.93;100017.78;5015722;28;20160;-63
2023/07/29 00:06:25;;;;;;;0.70;0.63;;;;;;;22.06;96.08;100024.06;5010285;28;20498;-63
2023/07/29 00:08:50;;;;;;;0.77;0.65;;;;;;;21.96;96.09;100019.72;5025249;28;20037;-65
2023/07/29 00:11:16;;;;;;;1.20;0.77;;;;;;;21.97;95.96;100013.00;5016073;28;20506;-64
2023/07/29 00:13:41;;;;;;;1.40;1.10;;;;;;;22.01;96.08;100004.66;5009730;28;20121;-64
2023/07/29 00:16:07;;;;;;;0.75;0.63;;;;;;;21.93;96.87;100004.13;5016662;28;20037;-64
2023/07/29 00:18:32;;;;;;;1.00;0.90;;;;;;;21.92;96.29;100002.63;5010484;28;20037;-64
2023/07/29 00:20:58;;;;;;;1.02;0.73;;;;;;;21.88;96.43;99993.75;5005371;28;20038;-63
2023/07/29 00:23:23;;;;;;;0.82;0.60;;;;;;;21.81;96.60;99991.28;5004543;28;20046;-63
2023/07/29 00:25:49;;;;;;;0.77;0.77;;;;;;;21.74;96.96;99985.28;5010222;28;20026;-64
2023/07/29 00:28:14;;;;;;;2.03;1.25;;;;;;;21.78;96.51;99989.38;5010366;28;20045;-62
2023/07/29 00:30:40;;;;;;;1.08;0.88;;;;;;;21.76;96.65;99983.59;5068834;28;20029;-63
2023/07/29 00:33:05;;;;;;;0.82;0.77;;;;;;;21.73;96.75;99989.19;5025098;28;20485;-63
2023/07/29 00:35:31;;;;;;;1.73;1.00;;;;;;;21.70;96.87;99987.38;5067132;28;20018;-64
2023/07/29 00:37:59;;;;;;;1.52;1.05;;;;;;;21.61;97.32;99990.03;5009292;28;20034;-63
2023/07/29 00:40:28;;;;;;;2.00;1.10;;;;;;;21.69;97.38;99983.09;5071271;28;20033;-65
2023/07/29 00:42:53;;;;;;;1.90;1.27;;;;;;;21.63;97.93;99988.38;5001258;28;20046;-65
2023/07/29 00:45:19;;;;;;;1.55;1.02;;;;;;;21.61;98.37;99981.81;5004782;28;20108;-65
2023/07/29 00:47:45;;;;;;;1.65;1.08;;;;;;;21.64;98.55;99978.19;5009888;28;20064;-64
2023/07/29 00:50:12;;;;;;;2.10;1.20;;;;;;;21.64;98.64;99967.22;5000852;28;20414;-64
2023/07/29 00:52:38;;;;;;;1.65;1.27;;;;;;;21.63;98.61;99965.69;5046440;28;20061;-64
2023/07/29 00:55:04;;;;;;;1.73;1.15;;;;;;;21.64;98.98;99969.97;5009359;28;20076;-63
2023/07/29 00:57:30;;;;;;;1.58;1.15;;;;;;;21.63;98.96;99962.94;5064156;28;20483;-64
2023/07/29 00:59:56;;;;;;;1.70;1.05;;;;;;;21.63;98.56;99963.69;5050593;28;20128;-63
2023/07/29 01:02:21;;;;;;;2.08;1.27;;;;;;;21.70;97.95;99957.22;5051238;28;20034;-62
2023/07/29 01:04:53;;;;;;;1.25;1.05;;;;;;;21.49;99.36;99958.72;5070574;28;20056;-64
2023/07/29 01:07:25;;;;;;;2.08;1.40;;;;;;;21.38;100.00;99955.59;5078895;28;20508;-65
2023/07/29 01:09:58;;;;;;;1.55;0.90;;;;;;;21.35;100.00;99948.28;5046298;28;20046;-64
2023/07/29 01:12:49;;;;;;;2.22;1.38;;;;;;;21.41;99.55;99946.47;5008602;28;20100;-63
2023/07/29 01:15:31;;;;;;;1.95;1.17;;;;;;;21.42;99.22;99942.53;5069960;28;20034;-63
2023/07/29 01:18:22;;;;;;;2.47;1.42;;;;;;;21.37;98.80;99932.13;5041177;28;20454;-63
2023/07/29 01:20:53;;;;;;;2.08;1.20;;;;;;;21.31;98.67;99926.47;5064074;28;20408;-63
2023/07/29 01:23:26;;;;;;;1.58;1.40;;;;;;;21.39;98.26;99924.25;5001185;28;20029;-63
2023/07/29 01:25:51;;;;;;;1.85;1.38;;;;;;;21.41;98.36;99927.28;5038068;28;20030;-63
2023/07/29 01:28:17;;;;;;;2.13;1.30;;;;;;;21.41;98.05;99924.56;5007118;28;20053;-64
2023/07/29 01:30:44;;;;;;;1.98;1.33;;;;;;;21.41;98.38;99930.81;5073529;28;20560;-63
2023/07/29 01:33:16;;;;;;;2.28;1.02;;;;;;;21.46;97.79;99919.28;4992275;28;20088;-63
2023/07/29 01:35:51;;;;;;;1.92;1.35;;;;;;;21.53;97.65;99919.03;5023332;28;20121;-64
2023/07/29 01:38:31;;;;;;;3.88;1.38;;;;;;;21.54;98.25;99917.06;5071762;28;20040;-65
2023/07/29 01:41:01;;;;;;;2.38;1.33;;;;;;;21.51;98.79;99924.19;5007696;28;20034;-63
2023/07/29 01:43:27;;;;;;;3.47;1.25;;;;;;;21.58;98.72;99917.69;5058204;28;20070;-63
2023/07/29 01:45:52;;;;;;;1.88;1.27;;;;;;;21.47;99.12;99912.59;5069582;28;20045;-64
2023/07/29 01:48:18;;;;;;;2.90;1.52;;;;;;;21.58;98.90;99911.44;5031560;28;20034;-64
2023/07/29 01:50:43;;;;;;;1.35;1.25;;;;;;;21.72;98.07;99921.88;5053103;28;20063;-64
2023/07/29 01:53:09;;;;;;;2.13;1.58;;;;;;;21.66;98.23;99918.94;5007918;28;20042;-64
2023/07/29 01:55:34;;;;;;;2.58;1.50;;;;;;;21.68;97.92;99910.28;5048970;28;20038;-64
2023/07/29 01:58:00;;;;;;;1.48;1.20;;;;;;;21.27;100.00;99912.13;5048306;28;20030;-65
2023/07/29 02:00:26;;;;;;;2.03;1.40;;;;;;;21.26;100.00;99913.34;5065858;28;20034;-64
2023/07/29 02:02:51;;;;;;;1.83;1.30;;;;;;;21.34;100.00;99913.84;4998736;28;20495;-63
2023/07/29 02:05:17;;;;;;;2.65;1.65;;;;;;;21.46;100.00;99927.50;5001089;28;20072;-65
2023/07/29 02:07:42;;;;;;;3.22;1.50;;;;;;;21.55;100.00;99926.78;5068217;28;20447;-64
2023/07/29 02:10:08;;;;;;;2.28;1.35;;;;;;;21.63;100.00;99941.78;5008920;28;20082;-64
2023/07/29 02:12:34;;;;;;;2.67;1.52;;;;;;;21.65;100.00;99944.84;4999314;28;20101;-63
2023/07/29 02:15:00;;;;;;;2.92;1.77;;;;;;;21.69;100.00;99939.22;5027678;28;20033;-65
2023/07/29 02:17:26;;;;;;;3.72;1.67;;;;;;;21.65;100.00;99930.34;5004135;28;20037;-63
2023/07/29 02:19:51;;;;;;;2.53;1.42;;;;;;;21.64;100.00;99929.59;5053073;28;20034;-65
2023/07/29 02:22:18;;;;;;;3.42;1.85;;;;;;;21.61;100.00;99926.97;5006021;28;20105;-65
2023/07/29 02:24:44;;;;;;;6.43;1.77;;;;;;;21.54;100.00;99922.53;5008533;28;20432;-64
2023/07/29 02:27:10;;;;;;;2.70;1.42;;;;;;;21.55;100.00;99930.31;4992727;28;20120;-63
2023/07/29 02:29:36;;;;;;;4.30;1.63;;;;;;;21.80;100.00;99917.66;5043989;28;20509;-64
2023/07/29 02:32:03;;;;;;;2.40;1.45;;;;;;;21.70;100.00;99918.84;5001188;28;20033;-64
2023/07/29 02:34:28;;;;;;;2.10;1.55;;;;;;;21.71;100.00;99923.84;5003871;28;20042;-65
2023/07/29 02:36:54;;;;;;;3.30;1.70;;;;;;;21.73;100.00;99924.19;5033943;28;20068;-65
2023/07/29 02:39:19;;;;;;;2.55;1.75;;;;;;;21.77;100.00;99918.56;5067754;28;20042;-65
2023/07/29 02:41:45;;;;;;;2.42;1.67;;;;;;;21.67;100.00;99925.97;5007358;28;20432;-65
2023/07/29 02:44:10;;;;;;;3.88;1.88;;;;;;;21.68;100.00;99919.25;5008118;28;20102;-64
2023/07/29 02:46:36;;;;;;;1.95;1.27;;;;;;;21.68;100.00;99924.00;4998730;28;20062;-65
2023/07/29 02:49:03;;;;;;;2.65;1.40;;;;;;;21.68;100.00;99915.78;5030249;28;20021;-65
2023/07/29 02:51:32;;;;;;;3.45;1.85;;;;;;;21.72;100.00;99917.16;5008353;28;20033;-63
2023/07/29 02:53:57;;;;;;;2.70;1.70;;;;;;;21.58;100.00;99916.91;5054602;28;20498;-65
2023/07/29 02:56:23;;;;;;;3.20;1.88;;;;;;;21.60;100.00;99915.28;5000904;28;20072;-65
2023/07/29 02:58:51;;;;;;;3.45;1.98;;;;;;;21.48;100.00;99900.44;5063797;28;20030;-64
2023/07/29 03:01:20;;;;;;;2.80;1.90;;;;;;;21.58;100.00;99895.78;5006461;28;20038;-63
2023/07/29 03:03:46;;;;;;;3.63;2.10;;;;;;;21.62;100.00;99901.13;5070235;28;20040;-64
2023/07/29 03:06:14;;;;;;;4.10;2.15;;;;;;;21.60;100.00;99885.13;5048120;28;20030;-64
2023/07/29 03:08:39;;;;;;;3.50;2.00;;;;;;;21.58;100.00;99895.00;5002496;28;20113;-64
2023/07/29 03:11:10;;;;;;;2.88;2.05;;;;;;;21.66;100.00;99890.78;5065382;28;20128;-64
2023/07/29 03:13:36;;;;;;;;;;;;;;;21.56;100.00;99898.19;5039926;28;20071;-63
2023/07/29 03:16:05;;;;;;;2.78;1.60;;;;;;;21.56;100.00;99898.19;5064858;28;20363;-63
2023/07/29 03:18:31;;;;;;;5.40;1.73;;;;;;;21.52;100.00;99892.81;5050082;28;20041;-63
2023/07/29 03:20:56;;;;;;;3.03;2.10;;;;;;;21.62;100.00;99901.88;5068752;28;20494;-64
2023/07/29 03:23:22;;;;;;;1.90;1.63;;;;;;;21.58;100.00;99904.72;5035746;28;20056;-65
2023/07/29 03:25:51;;;;;;;4.10;2.03;;;;;;;21.65;100.00;99902.94;5060693;28;20063;-64
2023/07/29 03:28:17;;;;;;;3.97;2.25;;;;;;;21.62;100.00;99901.13;5007014;28;20121;-62
2023/07/29 03:30:42;;;;;;;5.72;2.95;;;;;;;21.43;100.00;99906.47;4999134;28;20460;-64
2023/07/29 03:33:07;;;;;;;2.90;2.15;;;;;;;21.40;100.00;99901.88;5063919;28;20038;-64
2023/07/29 03:35:33;;;;;;;3.22;1.90;;;;;;;21.24;100.00;99904.81;5007706;28;20105;-65
2023/07/29 03:37:58;;;;;;;3.92;2.15;;;;;;;21.31;100.00;99904.53;4994594;28;20117;-64
2023/07/29 03:40:24;;;;;;;3.45;2.33;;;;;;;21.32;100.00;99911.56;5026095;28;20052;-64
2023/07/29 03:42:49;;;;;;;3.97;2.28;;;;;;;21.38;100.00;99907.06;5006678;28;20133;-64
2023/07/29 03:45:15;;;;;;;5.72;2.47;;;;;;;21.46;100.00;99911.06;4999761;28;20034;-62
2023/07/29 03:47:40;;;;;;;3.92;2.55;;;;;;;21.55;100.00;99916.59;5033114;28;20037;-63
2023/07/29 03:50:06;;;;;;;3.45;2.00;;;;;;;21.43;100.00;99916.66;5045187;28;20137;-64
2023/07/29 03:52:32;;;;;;;3.03;1.92;;;;;;;21.47;100.00;99911.81;5085566;28;20037;-64
2023/07/29 03:54:57;;;;;;;3.60;1.95;;;;;;;21.43;100.00;99914.69;5069862;28;20030;-63
2023/07/29 03:57:23;;;;;;;4.47;2.58;;;;;;;21.43;100.00;99911.19;5063184;28;20033;-63
2023/07/29 03:59:48;;;;;;;4.05;2.53;;;;;;;21.61;100.00;99910.53;5030277;28;20494;-65
2023/07/29 04:02:14;;;;;;;3.28;2.15;;;;;;;21.52;100.00;99898.28;5001058;28;20038;-65
2023/07/29 04:04:42;;;;;;;4.53;2.83;;;;;;;21.53;100.00;99899.84;5049547;28;20040;-64
2023/07/29 04:07:07;;;;;;;6.15;2.92;;;;;;;21.62;100.00;99888.19;5068258;28;20116;-65
2023/07/29 04:09:33;;;;;;;6.03;2.53;;;;;;;21.67;100.00;99884.06;5047314;28;20171;-63
2023/07/29 04:11:59;;;;;;;4.38;2.55;;;;;;;21.50;100.00;99889.75;5009441;28;20583;-65
2023/07/29 04:14:24;;;;;;;4.65;2.60;;;;;;;21.52;100.00;99881.84;5068100;28;20390;-64
2023/07/29 04:16:50;;;;;;;7.30;2.40;;;;;;;21.47;100.00;99878.94;5008248;28;20041;-64
2023/07/29 04:19:15;;;;;;;4.72;2.92;;;;;;;21.48;100.00;99885.94;5073221;28;20076;-65
2023/07/29 04:21:41;;;;;;;5.50;3.03;;;;;;;21.49;100.00;99880.03;5067200;28;20035;-64
2023/07/29 04:24:06;;;;;;;9.18;2.80;;;;;;;21.64;100.00;99879.50;5009627;28;20030;-64
2023/07/29 04:26:32;;;;;;;5.38;2.85;;;;;;;21.60;100.00;99882.38;5009475;28;20518;-64
2023/07/29 04:28:58;;;;;;;5.43;2.92;;;;;;;21.59;100.00;99886.31;5000496;28;20418;-65
2023/07/29 04:31:23;;;;;;;6.88;3.33;;;;;;;21.62;100.00;99885.44;5057690;28;20030;-65
2023/07/29 04:33:49;;;;;;;4.78;2.78;;;;;;;21.67;100.00;99906.78;5008924;28;20037;-65
2023/07/29 04:36:16;;;;;;;4.47;2.65;;;;;;;21.68;100.00;99910.28;5068294;28;20030;-63
2023/07/29 04:38:44;;;;;;;5.22;2.47;;;;;;;21.69;100.00;99911.81;5051380;28;20124;-65
2023/07/29 04:41:09;;;;;;;6.55;3.42;;;;;;;21.62;100.00;99901.88;5009475;28;20118;-65
2023/07/29 04:43:34;;;;;;;6.53;3.05;;;;;;;21.71;100.00;99901.94;5066176;28;20042;-64
2023/07/29 04:46:00;;;;;;;5.88;3.17;;;;;;;21.78;100.00;99893.44;5009108;28;20045;-64
2023/07/29 04:48:26;;;;;;;5.88;2.75;;;;;;;21.74;100.00;99883.81;5073798;28;20029;-64
2023/07/29 04:50:52;;;;;;;4.65;2.83;;;;;;;21.83;100.00;99889.38;5004560;28;20681;-64
2023/07/29 04:53:17;;;;;;;5.68;3.42;;;;;;;21.90;100.00;99889.09;5003492;28;20061;-64
2023/07/29 04:55:43;;;;;;;6.05;3.15;;;;;;;21.88;100.00;99886.81;5009866;28;20128;-64
2023/07/29 04:58:09;;;;;;;5.43;3.17;;;;;;;21.71;100.00;99881.97;5006298;28;20072;-64
2023/07/29 05:00:35;;;;;;;5.97;3.22;;;;;;;21.69;100.00;99892.63;5058708;28;20034;-64
2023/07/29 05:03:02;;;;;;;8.80;3.33;;;;;;;21.58;100.00;99889.50;5028631;28;20037;-64
2023/07/29 05:05:28;;;;;;;7.78;4.15;;;;;;;21.60;100.00;99882.38;5073277;28;20022;-64
2023/07/29 05:07:53;;;;;;;15.25;4.32;;;;;;;21.60;100.00;99882.38;5039436;28;20072;-65
2023/07/29 05:10:19;;;;;;;6.60;3.92;;;;;;;21.45;100.00;99889.56;5031909;28;20094;-65
2023/07/29 05:12:44;;;;;;;7.25;3.92;;;;;;;21.58;100.00;99890.28;5003441;28;20041;-64
2023/07/29 05:15:10;;;;;;;6.40;3.38;;;;;;;21.58;100.00;99885.53;5081729;28;20034;-64
2023/07/29 05:17:36;;;;;;;6.53;3.70;;;;;;;21.67;100.00;99895.03;5039829;28;20037;-63
2023/07/29 05:20:01;;;;;;;6.47;3.50;;;;;;;21.66;100.00;99886.03;5010026;28;20533;-64
2023/07/29 05:22:27;;;;;;;7.07;3.80;;;;;;;21.67;100.00;99890.31;4995620;28;20099;-64
2023/07/29 05:24:52;;;;;;;6.95;4.40;;;;;;;21.67;100.00;99890.31;5086678;28;20402;-64
2023/07/29 05:27:17;;;;;;;6.47;3.72;;;;;;;21.85;100.00;99890.47;5009029;28;20443;-65
2023/07/29 05:29:43;;;;;;;15.05;5.10;;;;;;;21.82;100.00;99890.56;5066119;28;20446;-64
2023/07/29 05:32:08;;;;;;;10.70;4.53;;;;;;;21.81;100.00;99883.56;5008316;28;20112;-64
2023/07/29 05:34:34;;;;;;;13.45;5.60;;;;;;;21.88;100.00;99883.28;5063354;28;20041;-64
2023/07/29 05:36:59;;;;;;;11.25;4.80;;;;;;;21.89;100.00;99893.81;5066829;28;20098;-65
2023/07/29 05:39:25;;;;;;;10.20;4.93;;;;;;;21.84;100.00;99890.88;5034942;28;20069;-65
2023/07/29 05:41:50;;;;;;;11.43;5.15;;;;;;;21.88;100.00;99897.00;5065910;28;20022;-64
2023/07/29 05:44:16;;;;;;;11.30;5.80;;;;;;;21.92;100.00;99883.91;5056130;28;20026;-65
2023/07/29 05:46:41;;;;;;;13.68;6.32;;;;;;;22.08;100.00;99891.91;5052625;28;20539;-63
2023/07/29 05:49:07;;;;;;;11.75;5.05;;;;;;;21.90;100.00;99889.88;5065207;28;20039;-63
2023/07/29 05:51:32;;;;;;;12.38;5.25;;;;;;;22.01;100.00;99884.72;5050851;28;20030;-65
2023/07/29 05:53:58;;;;;;;10.80;5.18;;;;;;;22.05;100.00;99879.09;5007182;28;20079;-63
2023/07/29 05:56:23;;;;;;;10.35;4.93;;;;;;;22.24;100.00;99881.44;5005711;28;20030;-64
2023/07/29 05:58:51;;;;;;;12.05;5.50;;;;;;;22.31;100.00;99880.41;5061694;28;20062;-63
2023/07/29 06:01:16;;;;;;;11.80;6.07;;;;;;;22.60;100.00;99885.53;5067179;28;21088;-62
2023/07/29 06:03:42;;;;;;;12.20;5.75;;;;;;;22.71;100.00;99891.34;5003542;28;20041;-64
2023/07/29 06:06:08;;;;;;;13.93;6.05;;;;;;;22.74;100.00;99888.47;4999621;28;20042;-64
2023/07/29 06:08:34;;;;;;;12.20;6.13;;;;;;;23.00;100.00;99895.19;5007895;28;20026;-64
2023/07/29 06:11:00;;;;;;;11.65;6.35;;;;;;;23.16;100.00;99894.13;5076592;28;20041;-64
2023/07/29 06:13:25;;;;;;;14.77;5.88;;;;;;;23.05;100.00;99889.06;5066118;28;20514;-63
2023/07/29 06:15:51;;;;;;;13.15;5.75;;;;;;;23.03;100.00;99879.78;5087337;28;20063;-64
2023/07/29 06:18:16;;;;;;;12.80;6.22;;;;;;;23.10;99.27;99893.97;5033730;28;20105;-65
2023/07/29 06:20:42;;;;;;;13.15;6.10;;;;;;;23.12;98.99;99879.78;5053518;28;20061;-62
2023/07/29 06:23:08;;;;;;;11.70;5.45;;;;;;;23.07;98.36;99880.41;5064530;28;20439;-63
2023/07/29 06:25:34;;;;;;;12.57;5.28;;;;;;;23.05;98.22;99874.59;5029751;28;20026;-62
2023/07/29 06:27:59;;;;;;;10.50;5.55;;;;;;;22.91;98.90;99864.22;5008914;28;20498;-65
2023/07/29 06:30:25;;;;;;;10.43;4.97;;;;;;;22.66;99.37;99864.50;4996788;28;20046;-64
2023/07/29 06:32:50;;;;;;;10.35;5.38;;;;;;;22.75;98.55;99870.75;5007671;28;20034;-63
2023/07/29 06:35:16;;;;;;;8.77;4.85;;;;;;;22.73;98.63;99873.19;5008819;28;20452;-65
2023/07/29 06:37:41;;;;;;;9.55;5.60;;;;;;;22.82;98.37;99883.44;4993725;28;20032;-64
2023/07/29 06:40:07;;;;;;;10.18;5.18;;;;;;;22.89;98.77;99886.66;5002256;28;20041;-65
2023/07/29 06:42:33;;;;;;;11.05;5.43;;;;;;;22.99;98.44;99884.66;5007108;28;20049;-64
2023/07/29 06:44:58;;;;;;;9.27;4.55;;;;;;;23.01;97.76;99882.22;5008294;28;20030;-64
2023/07/29 06:47:24;;;;;;;10.35;5.38;;;;;;;22.91;97.58;99875.97;4998772;28;20034;-65
2023/07/29 06:49:49;;;;;;;11.27;5.00;;;;;;;22.75;99.16;99870.75;5008786;28;20065;-65
2023/07/29 06:52:15;;;;;;;11.77;5.63;;;;;;;23.00;98.37;99870.47;4998247;28;20038;-65
2023/07/29 06:54:40;;;;;;;10.85;4.70;;;;;;;23.04;97.55;99873.06;5005056;28;20065;-64
2023/07/29 06:57:06;;;;;;;8.68;3.97;;;;;;;22.95;97.54;99881.31;5007838;28;20041;-64
2023/07/29 06:59:31;;;;;;;9.07;4.45;;;;;;;22.95;97.54;99876.59;4997419;28;20044;-63
2023/07/29 07:01:57;;;;;;;9.15;4.70;;;;;;;23.08;98.06;99868.94;5006577;28;20044;-63
2023/07/29 07:04:22;;;;;;;12.93;5.30;;;;;;;23.12;98.38;99868.78;5005971;28;20068;-61
2023/07/29 07:06:48;;;;;;;8.90;4.60;;;;;;;23.16;98.76;99872.91;5002618;28;20051;-61
2023/07/29 07:09:13;;;;;;;8.15;4.28;;;;;;;23.17;97.61;99885.41;4996767;28;20049;-63
2023/07/29 07:11:41;;;;;;;9.32;4.50;;;;;;;23.36;97.09;99885.44;5007467;28;20487;-64
2023/07/29 07:14:07;;;;;;;8.77;4.72;;;;;;;23.33;96.13;99886.34;5077018;28;20085;-64
2023/07/29 07:16:32;;;;;;;10.10;4.40;;;;;;;23.51;95.08;99887.09;4998786;28;20061;-63
2023/07/29 07:18:58;;;;;;;7.18;4.38;;;;;;;23.50;95.39;99885.53;5007637;28;20038;-64
2023/07/29 07:21:23;;;;;;;6.75;4.03;;;;;;;23.55;95.64;99895.16;4995777;28;20037;-64
2023/07/29 07:23:51;;;;;;;8.80;4.00;;;;;;;23.62;95.52;99886.59;5007154;28;20110;-65
2023/07/29 07:26:17;;;;;;;7.90;4.25;;;;;;;23.60;95.97;99889.03;5000346;28;20049;-65
2023/07/29 07:28:42;;;;;;;8.50;4.20;;;;;;;23.72;95.07;99886.13;4999097;28;20039;-64
2023/07/29 07:31:08;;;;;;;7.15;3.72;;;;;;;23.61;95.71;99890.56;5008775;28;20030;-63
2023/07/29 07:33:33;;;;;;;6.97;3.65;;;;;;;23.57;95.03;99873.47;5039453;28;20061;-65
2023/07/29 07:35:59;;;;;;;6.82;3.05;;;;;;;23.49;96.09;99875.00;4999598;28;20087;-63
2023/07/29 07:38:24;;;;;;;5.85;3.33;;;;;;;23.63;95.38;99871.63;5008077;28;20026;-63
2023/07/29 07:40:56;;;;;;;6.95;3.42;;;;;;;23.54;95.83;99872.41;5011562;28;20471;-65
2023/07/29 07:43:23;;;;;;;6.22;3.15;;;;;;;23.60;96.12;99875.28;5003820;28;20030;-61
2023/07/29 07:45:48;;;;;;;6.72;4.13;;;;;;;23.56;95.08;99880.94;5041672;28;20075;-63
2023/07/29 07:48:14;;;;;;;7.13;3.45;;;;;;;23.61;95.52;99874.06;5010981;28;20499;-64
2023/07/29 07:50:39;;;;;;;6.13;3.55;;;;;;;23.62;95.68;99883.84;4998556;28;20124;-62
2023/07/29 07:53:26;;;;;;;4.40;2.30;;;;;;;23.64;95.23;99884.91;5010382;28;20041;-64
2023/07/29 07:55:51;;;;;;;6.45;2.95;;;;;;;23.62;96.10;99881.84;5008640;28;20461;-63
2023/07/29 07:58:17;;;;;;;5.68;3.10;;;;;;;23.80;95.12;99879.06;5014345;28;20057;-63
2023/07/29 08:00:42;;;;;;;5.68;2.90;;;;;;;23.77;95.05;99884.75;4999646;28;20103;-64
2023/07/29 08:03:08;;;;;;;4.80;2.95;;;;;;;23.66;94.92;99881.69;5020986;28;20513;-65
2023/07/29 08:05:33;;;;;;;7.72;3.00;;;;;;;23.64;94.89;99862.13;5021231;28;20100;-63
2023/07/29 08:07:59;;;;;;;3.50;2.30;;;;;;;23.67;94.48;99863.97;5009030;28;20049;-64
2023/07/29 08:10:24;;;;;;;5.30;2.25;;;;;;;23.66;94.08;99860.47;5018532;28;20046;-64
2023/07/29 08:12:50;;;;;;;5.07;2.63;;;;;;;23.65;94.31;99855.44;5016795;28;20091;-63
2023/07/29 08:15:15;;;;;;;3.90;2.20;;;;;;;23.77;94.20;99857.97;5010395;28;20545;-63
2023/07/29 08:17:41;;;;;;;4.97;2.55;;;;;;;23.90;93.83;99863.28;5008838;28;20030;-64
2023/07/29 08:20:07;;;;;;;3.03;2.17;;;;;;;24.04;93.58;99876.41;5020188;28;20046;-64
2023/07/29 08:22:32;;;;;;;3.38;2.20;;;;;;;24.13;93.20;99870.84;5010481;28;20030;-64
2023/07/29 08:24:57;;;;;;;3.08;2.40;;;;;;;24.18;92.89;99867.44;5011410;28;20042;-63
2023/07/29 08:27:23;;;;;;;4.13;2.55;;;;;;;24.03;92.20;99874.88;5018172;28;20057;-64
2023/07/29 08:29:48;;;;;;;3.50;2.50;;;;;;;23.99;92.25;99863.25;4991124;28;20046;-64
2023/07/29 08:32:14;;;;;;;5.47;2.15;;;;;;;24.07;92.00;99873.47;5011377;28;20107;-63
2023/07/29 08:34:39;;;;;;;3.38;2.25;;;;;;;24.07;92.14;99876.25;5010825;28;20026;-64
2023/07/29 08:37:05;;;;;;;4.38;2.53;;;;;;;24.09;92.64;99871.03;5009228;28;20033;-64
2023/07/29 08:39:31;;;;;;;3.78;2.65;;;;;;;24.18;91.71;99870.97;4998520;28;20034;-65
2023/07/29 08:42:08;;;;;;;3.90;2.20;;;;;;;24.12;91.92;99872.06;5009286;28;20083;-63
2023/07/29 08:44:42;;;;;;;4.57;2.13;;;;;;;24.20;90.84;99873.25;5010737;28;20041;-65
2023/07/29 08:47:07;;;;;;;3.50;1.98;;;;;;;24.13;90.36;99870.84;4998134;28;20046;-63
2023/07/29 08:49:33;;;;;;;4.53;2.20;;;;;;;24.00;90.85;99873.03;5010161;28;20074;-63
2023/07/29 08:51:59;;;;;;;7.38;2.33;;;;;;;23.89;91.24;99873.53;5009367;28;20101;-64
2023/07/29 08:54:25;;;;;;;3.53;2.28;;;;;;;23.90;91.16;99868.78;4997840;28;20041;-63
2023/07/29 08:56:51;;;;;;;2.35;1.52;;;;;;;23.83;91.92;99867.13;5007715;28;20065;-64
2023/07/29 08:59:17;;;;;;;4.15;2.13;;;;;;;23.94;91.51;99869.38;5010450;28;20046;-65
2023/07/29 09:01:43;;;;;;;4.80;1.80;;;;;;;24.06;90.70;99871.19;5003660;28;20056;-64
2023/07/29 09:04:09;;;;;;;4.35;2.05;;;;;;;24.07;90.85;99872.72;5006510;28;20037;-64
2023/07/29 09:06:36;;;;;;;3.97;2.15;;;;;;;24.11;91.27;99878.81;5009481;28;20029;-62
2023/07/29 09:09:02;;;;;;;3.83;2.40;;;;;;;24.26;91.30;99863.13;4999032;28;20087;-64
2023/07/29 09:11:28;;;;;;;3.25;1.92;;;;;;;24.43;90.40;99853.25;5004573;28;20030;-63
2023/07/29 09:13:53;;;;;;;5.20;2.42;;;;;;;24.54;89.41;99861.75;5051707;28;20037;-64
2023/07/29 09:16:22;;;;;;;3.80;2.30;;;;;;;24.59;89.24;99860.31;5003165;28;20037;-62
2023/07/29 09:18:51;;;;;;;2.67;2.00;;;;;;;24.64;88.60;99854.19;5000970;28;20045;-63
2023/07/29 09:21:22;;;;;;;3.50;1.88;;;;;;;24.68;88.74;99858.28;5009512;28;20394;-63
2023/07/29 09:23:49;;;;;;;2.95;1.98;;;;;;;24.81;86.82;99861.59;4997546;28;20077;-63
2023/07/29 09:26:23;;;;;;;3.90;1.90;;;;;;;24.77;86.58;99863.75;4999054;28;20542;-63
2023/07/29 09:28:58;;;;;;;2.22;1.77;;;;;;;24.69;86.21;99857.06;5039394;28;20030;-64
2023/07/29 09:31:25;;;;;;;2.67;1.75;;;;;;;24.76;86.29;99851.19;4996293;28;20026;-62
2023/07/29 09:33:57;;;;;;;4.07;2.00;;;;;;;24.82;86.68;99852.06;5039044;28;20022;-64
2023/07/29 09:36:22;;;;;;;2.58;1.58;;;;;;;24.97;86.45;99852.88;4998915;28;20034;-63
2023/07/29 09:38:48;;;;;;;3.25;1.80;;;;;;;24.98;86.14;99854.41;5005589;28;20032;-62
2023/07/29 09:41:15;;;;;;;3.95;2.55;;;;;;;25.00;85.96;99848.41;5009056;28;20048;-63
2023/07/29 09:43:40;;;;;;;2.80;1.77;;;;;;;25.01;85.90;99850.69;4999881;28;20102;-63
2023/07/29 09:46:09;;;;;;;3.38;2.25;;;;;;;25.17;85.00;99838.44;5003642;28;20509;-62
2023/07/29 09:48:35;;;;;;;3.40;2.33;;;;;;;25.31;84.43;99839.69;5007538;28;20044;-64
2023/07/29 09:51:14;;;;;;;3.47;2.17;;;;;;;25.52;83.23;99841.31;5009421;28;20151;-64
2023/07/29 09:53:43;;;;;;;6.35;2.00;;;;;;;25.60;82.05;99856.25;5052651;28;20082;-64
2023/07/29 09:56:08;;;;;;;2.78;1.92;;;;;;;25.62;82.00;99846.28;5008591;28;20033;-64
2023/07/29 09:58:35;;;;;;;2.80;2.00;;;;;;;25.71;81.58;99839.88;4998142;28;20052;-63
2023/07/29 10:01:01;;;;;;;17.45;2.55;;;;;;;25.69;81.73;99845.13;5007772;28;20038;-62
2023/07/29 10:03:28;;;;;;;1.95;1.52;;;;;;;25.74;81.50;99847.22;5007736;28;20056;-63
2023/07/29 10:05:54;;;;;;;4.05;1.92;;;;;;;25.79;81.01;99852.06;4999570;28;20502;-63
2023/07/29 10:08:22;;;;;;;3.65;2.10;;;;;;;25.88;79.75;99849.94;5008169;28;20121;-64
2023/07/29 10:10:50;;;;;;;2.83;1.88;;;;;;;25.72;79.72;99852.47;5006420;28;20034;-62
2023/07/29 10:13:16;;;;;;;3.15;1.90;;;;;;;25.79;79.12;99858.34;5004740;28;20491;-64
2023/07/29 10:15:42;;;;;;;2.40;1.90;;;;;;;25.77;79.11;99866.34;5008542;28;20026;-63
2023/07/29 10:18:07;;;;;;;3.88;2.10;;;;;;;25.72;79.01;99871.78;5005608;28;20033;-61
2023/07/29 10:20:35;;;;;;;3.33;1.75;;;;;;;25.75;78.63;99866.06;5008024;28;20494;-62
2023/07/29 10:23:05;;;;;;;2.78;1.60;;;;;;;25.81;78.77;99866.13;5007028;28;20042;-62
2023/07/29 10:25:39;;;;;;;2.70;1.77;;;;;;;25.88;77.97;99857.47;5003801;28;20049;-62
2023/07/29 10:28:07;;;;;;;3.85;1.88;;;;;;;25.93;77.35;99860.31;5007212;28;20042;-62
2023/07/29 10:30:33;;;;;;;3.00;1.40;;;;;;;25.85;77.27;99853.66;5006739;28;20053;-63
2023/07/29 10:33:02;;;;;;;1.90;1.25;;;;;;;25.92;76.63;99850.50;5000866;28;20057;-64
2023/07/29 10:35:27;;;;;;;2.50;1.50;;;;;;;26.01;77.05;99857.94;5008241;28;20033;-61
2023/07/29 10:37:53;;;;;;;1.67;1.30;;;;;;;26.02;76.15;99847.63;4997432;28;20949;-63
2023/07/29 10:40:19;;;;;;;1.95;1.45;;;;;;;26.15;75.14;99857.13;5002863;28;20556;-62
2023/07/29 10:43:03;;;;;;;2.03;1.35;;;;;;;26.39;74.38;99851.44;5007274;28;20101;-65
2023/07/29 10:45:37;;;;;;;2.08;1.48;;;;;;;26.56;74.83;99849.66;5054330;28;20113;-63
2023/07/29 10:48:12;;;;;;;1.88;1.30;;;;;;;26.75;74.23;99851.69;5007981;28;20116;-64
2023/07/29 10:50:38;;;;;;;1.20;1.10;;;;;;;26.74;73.81;99841.88;4997266;28;20038;-63
2023/07/29 10:53:04;;;;;;;2.55;1.58;;;;;;;26.59;72.13;99835.66;5061144;28;20073;-62
2023/07/29 10:55:30;;;;;;;3.08;1.40;;;;;;;26.55;72.62;99837.09;5008321;28;20116;-62
2023/07/29 10:58:11;;;;;;;1.83;1.10;;;;;;;26.45;72.28;99830.19;5001052;28;20458;-63
2023/07/29 11:00:38;;;;;;;;;;;;;;;26.37;72.47;99829.84;5004319;28;20034;-64
2023/07/29 11:03:06;;;;;;;1.63;1.10;;;;;;;26.28;74.23;99827.22;5007224;28;19921;-63
2023/07/29 11:05:46;;;;;;;1.58;1.40;;;;;;;26.62;73.88;99822.84;5071370;28;20037;-63
2023/07/29 11:08:22;;;;;;;2.05;1.20;;;;;;;26.70;72.90;99837.78;5005019;28;20082;-63
2023/07/29 11:11:00;;;;;;;1.55;1.15;;;;;;;26.71;72.28;99823.47;5005772;28;20037;-63
2023/07/29 11:13:30;;;;;;;2.90;1.30;;;;;;;26.76;72.03;99828.34;4999692;28;20034;-63
2023/07/29 11:15:58;;;;;;;1.67;1.30;;;;;;;26.86;71.04;99828.19;4996011;28;20113;-63
2023/07/29 11:18:26;;;;;;;1.98;1.17;;;;;;;26.73;71.04;99829.28;5007595;28;20022;-62
2023/07/29 11:20:54;;;;;;;1.88;1.10;;;;;;;26.61;71.57;99827.63;5006743;28;20047;-63
2023/07/29 11:23:20;;;;;;;1.30;1.08;;;;;;;26.57;71.53;99821.56;4998992;28;20530;-62
2023/07/29 11:25:46;;;;;;;4.13;0.65;;;;;;;26.38;70.20;99831.38;5007241;28;20026;-63
2023/07/29 11:28:11;;;;;;;1.48;0.70;;;;;;;26.28;71.06;99820.91;5057491;28;20049;-63